createdAt,value
2018-12-07T00:00:56.245Z,0.00
2018-12-07T00:01:56.239Z,0.00
2018-12-07T00:02:56.254Z,0.00
2018-12-07T00:03:56.357Z,0.00
2018-12-07T00:04:56.196Z,0.00
2018-12-07T00:05:56.195Z,0.00
2018-12-07T00:06:56.228Z,0.00
2018-12-07T00:07:56.226Z,0.00
2018-12-07T00:08:56.198Z,0.00
2018-12-07T00:09:56.149Z,0.00
2018-12-07T00:10:56.131Z,0.00
2018-12-07T00:11:56.125Z,0.00
2018-12-07T00:12:56.250Z,0.00
2018-12-07T00:13:56.108Z,0.00
2018-12-07T00:14:56.113Z,0.00
2018-12-07T00:15:56.117Z,0.00
2018-12-07T00:16:56.091Z,0.00
2018-12-07T00:17:56.126Z,0.00
2018-12-07T00:18:56.092Z,0.00
2018-12-07T00:19:56.093Z,0.00
2018-12-07T00:20:56.090Z,0.00
2018-12-07T00:21:56.029Z,0.00
2018-12-07T00:22:56.121Z,0.00
2018-12-07T00:23:55.991Z,0.00
2018-12-07T00:24:55.981Z,0.00
2018-12-07T00:25:55.972Z,0.00
2018-12-07T00:26:55.955Z,0.00
2018-12-07T00:27:56.067Z,0.00
2018-12-07T00:28:55.939Z,0.00
2018-12-07T00:29:55.924Z,0.00
2018-12-07T00:30:55.910Z,0.00
2018-12-07T00:31:55.900Z,0.00
2018-12-07T00:32:55.929Z,0.00
2018-12-07T00:33:55.884Z,0.00
2018-12-07T00:34:55.867Z,0.00
2018-12-07T00:35:55.862Z,0.00
2018-12-07T00:36:55.847Z,0.00
2018-12-07T00:37:55.858Z,0.00
2018-12-07T00:38:55.821Z,0.00
2018-12-07T00:39:55.838Z,0.00
2018-12-07T00:40:55.958Z,0.00
2018-12-07T00:41:55.795Z,0.00
2018-12-07T00:42:55.793Z,0.00
2018-12-07T00:43:55.811Z,0.00
2018-12-07T00:44:55.756Z,0.00
2018-12-07T00:45:55.791Z,0.00
2018-12-07T00:46:55.748Z,0.00
2018-12-07T00:47:55.733Z,0.00
2018-12-07T00:48:55.708Z,0.00
2018-12-07T00:49:55.701Z,0.00
2018-12-07T00:50:55.714Z,0.00
2018-12-07T00:51:55.725Z,0.00
2018-12-07T00:52:55.666Z,0.00
2018-12-07T00:53:55.665Z,0.00
2018-12-07T00:54:55.643Z,0.00
2018-12-07T00:55:55.635Z,0.00
2018-12-07T00:56:55.656Z,0.00
2018-12-07T00:57:55.644Z,0.00
2018-12-07T00:58:55.604Z,0.00
2018-12-07T00:59:55.664Z,0.00
2018-12-07T01:00:55.577Z,0.00
2018-12-07T01:01:55.649Z,0.00
2018-12-07T01:02:55.555Z,0.00
2018-12-07T01:03:55.546Z,0.00
2018-12-07T01:04:55.634Z,0.00
2018-12-07T01:05:55.525Z,0.00
2018-12-07T01:06:55.569Z,0.00
2018-12-07T01:07:55.526Z,0.00
2018-12-07T01:08:55.529Z,0.00
2018-12-07T01:09:55.488Z,0.00
2018-12-07T01:10:55.471Z,0.00
2018-12-07T01:11:55.457Z,0.00
2018-12-07T01:12:55.445Z,0.00
2018-12-07T01:13:55.481Z,0.00
2018-12-07T01:14:55.420Z,0.00
2018-12-07T01:15:55.410Z,0.00
2018-12-07T01:16:55.404Z,0.00
2018-12-07T01:17:55.387Z,0.00
2018-12-07T01:18:55.523Z,0.00
2018-12-07T01:19:55.391Z,0.00
2018-12-07T01:20:55.466Z,0.00
2018-12-07T01:21:55.346Z,0.00
2018-12-07T01:22:55.337Z,0.00
2018-12-07T01:23:55.379Z,0.00
2018-12-07T01:24:55.318Z,0.00
2018-12-07T01:25:55.332Z,0.00
2018-12-07T01:26:55.326Z,0.00
2018-12-07T01:27:55.281Z,0.00
2018-12-07T01:28:55.266Z,0.00
2018-12-07T01:29:55.285Z,0.00
2018-12-07T01:30:55.250Z,0.00
2018-12-07T01:31:55.259Z,0.00
2018-12-07T01:32:55.225Z,0.00
2018-12-07T01:33:55.214Z,0.00
2018-12-07T01:34:55.209Z,0.00
2018-12-07T01:35:55.195Z,0.00
2018-12-07T01:36:55.242Z,0.00
2018-12-07T01:37:55.171Z,0.00
2018-12-07T01:38:55.159Z,0.00
2018-12-07T01:39:55.188Z,0.00
2018-12-07T01:40:55.137Z,0.00
2018-12-07T01:41:55.179Z,0.00
2018-12-07T01:42:55.115Z,0.00
2018-12-07T01:43:55.202Z,0.00
2018-12-07T01:44:55.092Z,0.00
2018-12-07T01:45:55.086Z,0.00
2018-12-07T01:46:55.071Z,0.00
2018-12-07T01:47:55.061Z,0.00
2018-12-07T01:48:55.083Z,0.00
2018-12-07T01:49:55.037Z,0.00
2018-12-07T01:50:55.034Z,0.00
2018-12-07T01:51:55.017Z,0.00
2018-12-07T01:52:55.041Z,0.00
2018-12-07T01:53:54.992Z,0.00
2018-12-07T01:54:54.985Z,0.00
2018-12-07T01:55:55.032Z,0.00
2018-12-07T01:56:54.969Z,0.00
2018-12-07T01:57:54.977Z,0.00
2018-12-07T01:58:54.940Z,0.00
2018-12-07T01:59:54.927Z,0.00
2018-12-07T02:00:54.920Z,0.00
2018-12-07T02:01:54.905Z,0.00
2018-12-07T02:02:54.924Z,0.00
2018-12-07T02:03:54.914Z,0.00
2018-12-07T02:04:54.893Z,0.00
2018-12-07T02:05:54.862Z,0.00
2018-12-07T02:06:54.855Z,0.00
2018-12-07T02:07:54.839Z,0.00
2018-12-07T02:08:54.866Z,0.00
2018-12-07T02:09:54.819Z,0.00
2018-12-07T02:10:54.812Z,0.00
2018-12-07T02:11:54.811Z,0.00
2018-12-07T02:12:54.787Z,0.00
2018-12-07T02:13:54.811Z,0.00
2018-12-07T02:14:54.759Z,0.00
2018-12-07T02:15:54.784Z,0.00
2018-12-07T02:16:54.735Z,0.00
2018-12-07T02:17:54.728Z,0.00
2018-12-07T02:18:54.761Z,0.00
2018-12-07T02:19:54.737Z,0.00
2018-12-07T02:20:54.693Z,0.00
2018-12-07T02:21:54.687Z,0.00
2018-12-07T02:22:54.671Z,0.00
2018-12-07T02:23:54.703Z,0.00
2018-12-07T02:24:54.678Z,0.00
2018-12-07T02:25:54.644Z,0.00
2018-12-07T02:26:54.628Z,0.00
2018-12-07T02:27:54.673Z,0.00
2018-12-07T02:28:54.613Z,0.00
2018-12-07T02:29:54.593Z,0.00
2018-12-07T02:30:54.583Z,0.00
2018-12-07T02:31:54.608Z,0.00
2018-12-07T02:32:54.560Z,0.00
2018-12-07T02:33:54.559Z,0.00
2018-12-07T02:34:54.545Z,0.00
2018-12-07T02:35:54.578Z,0.00
2018-12-07T02:36:54.554Z,0.00
2018-12-07T02:37:54.541Z,0.00
2018-12-07T02:38:54.500Z,0.00
2018-12-07T02:39:54.484Z,0.00
2018-12-07T02:40:54.504Z,0.00
2018-12-07T02:41:54.489Z,0.00
2018-12-07T02:42:54.453Z,0.00
2018-12-07T02:43:54.441Z,0.00
2018-12-07T02:44:54.429Z,0.00
2018-12-07T02:45:54.424Z,0.00
2018-12-07T02:46:54.436Z,0.00
2018-12-07T02:47:54.416Z,0.00
2018-12-07T02:48:54.415Z,0.00
2018-12-07T02:49:54.388Z,0.00
2018-12-07T02:50:54.362Z,0.00
2018-12-07T02:51:54.394Z,0.00
2018-12-07T02:52:54.341Z,0.00
2018-12-07T02:53:54.335Z,0.00
2018-12-07T02:54:54.316Z,0.00
2018-12-07T02:55:54.306Z,0.00
2018-12-07T02:56:54.339Z,0.00
2018-12-07T02:57:54.287Z,0.00
2018-12-07T02:58:54.319Z,0.00
2018-12-07T02:59:54.330Z,0.00
2018-12-07T03:00:54.258Z,0.00
2018-12-07T03:01:54.282Z,0.00
2018-12-07T03:02:54.260Z,0.00
2018-12-07T03:03:54.219Z,0.00
2018-12-07T03:04:54.207Z,0.00
2018-12-07T03:05:54.200Z,0.00
2018-12-07T03:06:54.195Z,0.00
2018-12-07T03:07:54.222Z,0.00
2018-12-07T03:08:54.163Z,0.00
2018-12-07T03:09:54.153Z,0.00
2018-12-07T03:10:54.144Z,0.00
2018-12-07T03:11:54.133Z,0.00
2018-12-07T03:12:54.178Z,0.00
2018-12-07T03:13:54.142Z,0.00
2018-12-07T03:14:54.103Z,0.00
2018-12-07T03:15:54.100Z,0.00
2018-12-07T03:16:54.084Z,0.00
2018-12-07T03:17:54.131Z,0.00
2018-12-07T03:18:54.086Z,0.00
2018-12-07T03:19:54.043Z,0.00
2018-12-07T03:20:54.033Z,0.00
2018-12-07T03:21:54.022Z,0.00
2018-12-07T03:22:54.039Z,0.00
2018-12-07T03:23:53.999Z,0.00
2018-12-07T03:24:54.032Z,0.00
2018-12-07T03:25:53.981Z,0.00
2018-12-07T03:26:53.967Z,0.00
2018-12-07T03:27:53.960Z,0.00
2018-12-07T03:28:53.975Z,0.00
2018-12-07T03:29:53.936Z,0.00
2018-12-07T03:30:53.949Z,0.00
2018-12-07T03:31:54.030Z,0.00
2018-12-07T03:32:53.901Z,0.00
2018-12-07T03:33:53.925Z,0.00
2018-12-07T03:34:53.877Z,0.00
2018-12-07T03:35:53.919Z,0.00
2018-12-07T03:36:53.860Z,0.00
2018-12-07T03:37:53.850Z,0.00
2018-12-07T03:38:53.838Z,0.00
2018-12-07T03:39:53.831Z,0.00
2018-12-07T03:40:53.837Z,0.00
2018-12-07T03:41:53.847Z,0.00
2018-12-07T03:42:53.795Z,0.00
2018-12-07T03:43:53.785Z,0.00
2018-12-07T03:44:53.769Z,0.00
2018-12-07T03:45:53.755Z,0.00
2018-12-07T03:46:53.825Z,0.00
2018-12-07T03:47:53.739Z,0.00
2018-12-07T03:48:53.723Z,0.00
2018-12-07T03:49:53.709Z,0.00
2018-12-07T03:50:53.702Z,0.00
2018-12-07T03:51:53.722Z,0.00
2018-12-07T03:52:53.682Z,0.00
2018-12-07T03:53:53.666Z,0.00
2018-12-07T03:54:53.664Z,0.00
2018-12-07T03:55:53.713Z,0.00
2018-12-07T03:56:53.638Z,0.00
2018-12-07T03:57:53.663Z,0.00
2018-12-07T03:58:53.615Z,0.00
2018-12-07T03:59:53.610Z,0.00
2018-12-07T04:00:53.596Z,0.00
2018-12-07T04:01:53.611Z,0.00
2018-12-07T04:02:53.567Z,0.00
2018-12-07T04:03:53.593Z,0.00
2018-12-07T04:04:53.549Z,0.00
2018-12-07T04:05:53.555Z,0.00
2018-12-07T04:06:53.569Z,0.00
2018-12-07T04:07:53.524Z,0.00
2018-12-07T04:08:53.512Z,0.00
2018-12-07T04:09:53.498Z,0.00
2018-12-07T04:10:53.529Z,0.00
2018-12-07T04:11:53.539Z,0.00
2018-12-07T04:12:53.461Z,0.00
2018-12-07T04:13:53.462Z,0.00
2018-12-07T04:14:53.440Z,0.00
2018-12-07T04:15:53.464Z,0.00
2018-12-07T04:16:53.441Z,0.00
2018-12-07T04:17:53.411Z,0.00
2018-12-07T04:18:53.404Z,0.00
2018-12-07T04:19:53.386Z,0.00
2018-12-07T04:20:53.416Z,0.00
2018-12-07T04:21:53.375Z,0.00
2018-12-07T04:22:53.381Z,0.00
2018-12-07T04:23:53.343Z,0.00
2018-12-07T04:24:53.326Z,0.00
2018-12-07T04:25:53.318Z,0.00
2018-12-07T04:26:53.337Z,0.00
2018-12-07T04:27:53.321Z,0.00
2018-12-07T04:28:53.329Z,0.00
2018-12-07T04:29:53.316Z,0.00
2018-12-07T04:30:53.263Z,0.00
2018-12-07T04:31:53.248Z,0.00
2018-12-07T04:32:53.235Z,0.00
2018-12-07T04:33:53.276Z,0.00
2018-12-07T04:34:53.239Z,0.00
2018-12-07T04:35:53.234Z,0.00
2018-12-07T04:36:53.197Z,0.00
2018-12-07T04:37:53.214Z,0.00
2018-12-07T04:38:53.170Z,0.00
2018-12-07T04:39:53.159Z,0.00
2018-12-07T04:40:53.153Z,0.00
2018-12-07T04:41:53.148Z,0.00
2018-12-07T04:42:53.176Z,0.00
2018-12-07T04:43:53.120Z,0.00
2018-12-07T04:44:53.112Z,0.00
2018-12-07T04:45:53.118Z,0.00
2018-12-07T04:46:53.090Z,0.00
2018-12-07T04:47:53.145Z,0.00
2018-12-07T04:48:53.144Z,0.00
2018-12-07T04:49:53.083Z,0.00
2018-12-07T04:50:53.069Z,0.00
2018-12-07T04:51:53.033Z,0.00
2018-12-07T04:52:53.019Z,0.00
2018-12-07T04:53:53.023Z,0.00
2018-12-07T04:54:53.020Z,0.00
2018-12-07T04:55:52.991Z,0.00
2018-12-07T04:56:53.039Z,0.00
2018-12-07T04:57:52.989Z,0.00
2018-12-07T04:58:52.964Z,0.00
2018-12-07T04:59:52.973Z,0.00
2018-12-07T05:00:52.934Z,0.00
2018-12-07T05:01:52.928Z,0.00
2018-12-07T05:02:52.912Z,0.00
2018-12-07T05:03:52.912Z,0.00
2018-12-07T05:04:52.985Z,0.00
2018-12-07T05:05:52.873Z,0.00
2018-12-07T05:06:52.906Z,0.00
2018-12-07T05:07:52.850Z,0.00
2018-12-07T05:08:52.843Z,0.00
2018-12-07T05:09:52.862Z,0.00
2018-12-07T05:10:52.817Z,0.00
2018-12-07T05:11:52.810Z,0.00
2018-12-07T05:12:52.802Z,0.00
2018-12-07T05:13:52.846Z,0.00
2018-12-07T05:14:52.808Z,0.00
2018-12-07T05:15:52.770Z,0.00
2018-12-07T05:16:52.780Z,0.00
2018-12-07T05:17:52.748Z,0.00
2018-12-07T05:18:52.742Z,0.00
2018-12-07T05:19:52.732Z,0.00
2018-12-07T05:20:52.707Z,0.00
2018-12-07T05:21:52.726Z,0.00
2018-12-07T05:22:52.685Z,0.00
2018-12-07T05:23:52.679Z,0.00
2018-12-07T05:24:52.681Z,0.00
2018-12-07T05:25:52.690Z,0.00
2018-12-07T05:26:52.684Z,0.00
2018-12-07T05:27:52.631Z,0.00
2018-12-07T05:28:53.140Z,0.00
2018-12-07T05:29:52.613Z,0.00
2018-12-07T05:30:52.597Z,0.00
2018-12-07T05:31:52.620Z,0.00
2018-12-07T05:32:52.580Z,0.00
2018-12-07T05:33:52.568Z,0.00
2018-12-07T05:34:52.565Z,0.00
2018-12-07T05:35:57.736Z,0.00
2018-12-07T05:36:52.530Z,0.00
2018-12-07T05:37:52.523Z,0.00
2018-12-07T05:38:52.529Z,0.00
2018-12-07T05:39:52.537Z,0.00
2018-12-07T05:40:52.494Z,0.00
2018-12-07T05:41:52.494Z,0.00
2018-12-07T05:42:52.466Z,0.00
2018-12-07T05:43:52.454Z,0.00
2018-12-07T05:44:52.492Z,0.00
2018-12-07T05:45:52.435Z,0.00
2018-12-07T05:46:52.421Z,0.00
2018-12-07T05:47:52.412Z,0.00
2018-12-07T05:48:52.481Z,0.00
2018-12-07T05:49:52.476Z,0.00
2018-12-07T05:50:52.406Z,0.00
2018-12-07T05:51:52.411Z,0.00
2018-12-07T05:52:52.392Z,0.00
2018-12-07T05:53:52.345Z,0.00
2018-12-07T05:54:52.330Z,0.00
2018-12-07T05:55:52.380Z,0.00
2018-12-07T05:56:52.314Z,0.00
2018-12-07T05:57:52.295Z,0.00
2018-12-07T05:58:52.297Z,0.00
2018-12-07T05:59:52.326Z,0.00
2018-12-07T06:00:52.383Z,0.00
2018-12-07T06:01:52.297Z,0.00
2018-12-07T06:02:52.292Z,0.00
2018-12-07T06:03:52.244Z,0.00
2018-12-07T06:04:52.220Z,0.00
2018-12-07T06:05:52.209Z,0.00
2018-12-07T06:06:52.235Z,0.00
2018-12-07T06:07:52.214Z,0.00
2018-12-07T06:08:52.175Z,0.00
2018-12-07T06:09:52.169Z,0.00
2018-12-07T06:10:52.161Z,0.00
2018-12-07T06:11:52.146Z,0.00
2018-12-07T06:12:52.192Z,0.00
2018-12-07T06:13:52.127Z,0.00
2018-12-07T06:14:52.108Z,0.00
2018-12-07T06:15:52.101Z,0.00
2018-12-07T06:16:52.120Z,0.00
2018-12-07T06:17:52.110Z,0.00
2018-12-07T06:18:52.069Z,0.00
2018-12-07T06:19:52.060Z,0.00
2018-12-07T06:20:52.047Z,0.00
2018-12-07T06:21:52.035Z,0.00
2018-12-07T06:22:52.054Z,0.00
2018-12-07T06:23:52.008Z,0.00
2018-12-07T06:24:52.110Z,0.00
2018-12-07T06:25:51.992Z,0.00
2018-12-07T06:26:51.978Z,0.00
2018-12-07T06:27:52.026Z,0.00
2018-12-07T06:28:51.958Z,0.00
2018-12-07T06:29:51.946Z,0.00
2018-12-07T06:30:51.947Z,0.00
2018-12-07T06:31:51.925Z,0.00
2018-12-07T06:32:51.957Z,0.00
2018-12-07T06:33:51.903Z,0.00
2018-12-07T06:34:51.892Z,0.00
2018-12-07T06:35:51.896Z,0.00
2018-12-07T06:36:51.870Z,0.00
2018-12-07T06:37:51.882Z,0.00
2018-12-07T06:38:51.844Z,0.00
2018-12-07T06:39:52.398Z,0.00
2018-12-07T06:40:51.886Z,0.00
2018-12-07T06:41:51.814Z,0.00
2018-12-07T06:42:51.845Z,0.00
2018-12-07T06:43:51.798Z,0.00
2018-12-07T06:44:51.778Z,0.00
2018-12-07T06:45:51.769Z,0.00
2018-12-07T06:46:51.758Z,0.00
2018-12-07T06:47:51.783Z,0.00
2018-12-07T06:48:51.740Z,0.00
2018-12-07T06:49:51.728Z,0.00
2018-12-07T06:50:51.714Z,0.00
2018-12-07T06:51:51.703Z,0.00
2018-12-07T06:52:51.692Z,0.00
2018-12-07T06:53:51.712Z,0.00
2018-12-07T06:54:51.668Z,0.00
2018-12-07T06:55:51.662Z,0.00
2018-12-07T06:56:51.645Z,0.00
2018-12-07T06:57:51.639Z,0.00
2018-12-07T06:58:51.671Z,0.00
2018-12-07T06:59:51.618Z,0.00
2018-12-07T07:00:51.800Z,0.00
2018-12-07T07:01:51.589Z,4.00
2018-12-07T07:02:51.585Z,4.00
2018-12-07T07:03:51.746Z,4.00
2018-12-07T07:04:51.615Z,4.00
2018-12-07T07:05:51.548Z,0.00
2018-12-07T07:06:51.546Z,4.00
2018-12-07T07:07:51.540Z,4.00
2018-12-07T07:08:51.517Z,4.00
2018-12-07T07:09:51.549Z,4.00
2018-12-07T07:10:51.495Z,4.00
2018-12-07T07:11:51.481Z,8.00
2018-12-07T07:12:51.469Z,8.00
2018-12-07T07:13:51.459Z,8.00
2018-12-07T07:14:51.471Z,4.00
2018-12-07T07:15:51.438Z,8.00
2018-12-07T07:16:51.427Z,8.00
2018-12-07T07:17:51.489Z,12.00
2018-12-07T07:18:51.417Z,12.00
2018-12-07T07:19:51.468Z,12.00
2018-12-07T07:20:51.384Z,8.00
2018-12-07T07:21:51.370Z,12.00
2018-12-07T07:22:51.372Z,12.00
2018-12-07T07:23:51.351Z,12.00
2018-12-07T07:24:51.420Z,16.00
2018-12-07T07:25:51.335Z,16.00
2018-12-07T07:26:51.319Z,16.00
2018-12-07T07:27:51.309Z,20.00
2018-12-07T07:28:52.161Z,20.00
2018-12-07T07:29:51.288Z,20.00
2018-12-07T07:30:51.299Z,24.00
2018-12-07T07:31:51.259Z,20.00
2018-12-07T07:32:51.248Z,28.00
2018-12-07T07:33:51.239Z,28.00
2018-12-07T07:34:51.242Z,32.00
2018-12-07T07:35:51.246Z,36.00
2018-12-07T07:36:51.214Z,40.00
2018-12-07T07:37:51.193Z,48.00
2018-12-07T07:38:51.185Z,56.00
2018-12-07T07:39:51.217Z,60.00
2018-12-07T07:40:51.170Z,60.00
2018-12-07T07:41:51.180Z,84.00
2018-12-07T07:42:51.140Z,80.00
2018-12-07T07:43:51.149Z,92.00
2018-12-07T07:44:51.121Z,100.00
2018-12-07T07:45:51.111Z,116.00
2018-12-07T07:46:51.146Z,112.00
2018-12-07T07:47:51.084Z,132.00
2018-12-07T07:48:51.098Z,136.00
2018-12-07T07:49:51.098Z,116.00
2018-12-07T07:50:51.050Z,124.00
2018-12-07T07:51:51.082Z,108.00
2018-12-07T07:52:51.680Z,96.00
2018-12-07T07:53:51.017Z,88.00
2018-12-07T07:54:51.008Z,112.00
2018-12-07T07:55:51.004Z,96.00
2018-12-07T07:56:51.063Z,120.00
2018-12-07T07:57:50.970Z,128.00
2018-12-07T07:58:51.038Z,120.00
2018-12-07T07:59:50.952Z,128.00
2018-12-07T08:00:51.019Z,128.00
2018-12-07T08:01:50.967Z,120.00
2018-12-07T08:02:50.917Z,116.00
2018-12-07T08:03:50.913Z,112.00
2018-12-07T08:04:50.942Z,116.00
2018-12-07T08:05:50.889Z,128.00
2018-12-07T08:06:50.879Z,128.00
2018-12-07T08:07:50.891Z,128.00
2018-12-07T08:08:50.851Z,124.00
2018-12-07T08:09:50.843Z,132.00
2018-12-07T08:10:50.834Z,128.00
2018-12-07T08:11:50.817Z,144.00
2018-12-07T08:12:50.866Z,132.00
2018-12-07T08:13:50.812Z,148.00
2018-12-07T08:14:50.790Z,136.00
2018-12-07T08:15:50.774Z,140.00
2018-12-07T08:16:50.853Z,152.00
2018-12-07T08:17:50.755Z,164.00
2018-12-07T08:18:50.837Z,164.00
2018-12-07T08:19:50.734Z,184.00
2018-12-07T08:20:50.728Z,200.00
2018-12-07T08:21:50.710Z,196.00
2018-12-07T08:22:50.706Z,224.00
2018-12-07T08:23:50.714Z,240.00
2018-12-07T08:24:50.682Z,196.00
2018-12-07T08:25:50.664Z,192.00
2018-12-07T08:26:50.654Z,200.00
2018-12-07T08:27:50.659Z,220.00
2018-12-07T08:28:50.664Z,196.00
2018-12-07T08:29:50.624Z,236.00
2018-12-07T08:30:50.626Z,232.00
2018-12-07T08:31:50.604Z,228.00
2018-12-07T08:32:50.596Z,204.00
2018-12-07T08:33:50.599Z,204.00
2018-12-07T08:34:50.572Z,216.00
2018-12-07T08:35:50.579Z,224.00
2018-12-07T08:36:50.566Z,220.00
2018-12-07T08:37:50.544Z,216.00
2018-12-07T08:38:50.550Z,220.00
2018-12-07T08:39:50.512Z,224.00
2018-12-07T08:40:50.499Z,216.00
2018-12-07T08:41:50.497Z,240.00
2018-12-07T08:42:50.485Z,268.00
2018-12-07T08:43:50.500Z,292.00
2018-12-07T08:44:50.486Z,312.00
2018-12-07T08:45:50.445Z,328.00
2018-12-07T08:46:50.440Z,384.00
2018-12-07T08:47:50.442Z,388.00
2018-12-07T08:48:50.414Z,432.00
2018-12-07T08:49:50.446Z,380.00
2018-12-07T08:50:50.390Z,376.00
2018-12-07T08:51:50.395Z,420.00
2018-12-07T08:52:50.386Z,332.00
2018-12-07T08:53:50.359Z,368.00
2018-12-07T08:54:50.390Z,340.00
2018-12-07T08:55:50.410Z,384.00
2018-12-07T08:56:50.323Z,348.00
2018-12-07T08:57:50.311Z,300.00
2018-12-07T08:58:50.302Z,320.00
2018-12-07T08:59:50.299Z,312.00
2018-12-07T09:00:50.324Z,292.00
2018-12-07T09:01:50.270Z,328.00
2018-12-07T09:02:50.258Z,300.00
2018-12-07T09:03:50.247Z,320.00
2018-12-07T09:04:50.235Z,304.00
2018-12-07T09:05:50.259Z,340.00
2018-12-07T09:06:50.234Z,344.00
2018-12-07T09:07:50.208Z,352.00
2018-12-07T09:08:50.205Z,316.00
2018-12-07T09:09:50.185Z,344.00
2018-12-07T09:10:50.712Z,364.00
2018-12-07T09:11:50.193Z,312.00
2018-12-07T09:12:50.159Z,368.00
2018-12-07T09:13:50.135Z,416.00
2018-12-07T09:14:50.130Z,384.00
2018-12-07T09:15:50.188Z,456.00
2018-12-07T09:16:50.109Z,444.00
2018-12-07T09:17:50.136Z,440.00
2018-12-07T09:18:50.078Z,396.00
2018-12-07T09:19:50.075Z,416.00
2018-12-07T09:20:53.883Z,396.00
2018-12-07T09:21:50.050Z,380.00
2018-12-07T09:22:50.077Z,492.00
2018-12-07T09:23:50.030Z,456.00
2018-12-07T09:24:50.024Z,456.00
2018-12-07T09:25:50.071Z,536.00
2018-12-07T09:26:49.994Z,396.00
2018-12-07T09:27:49.985Z,368.00
2018-12-07T09:28:50.016Z,372.00
2018-12-07T09:29:50.007Z,372.00
2018-12-07T09:30:49.951Z,412.00
2018-12-07T09:31:49.946Z,368.00
2018-12-07T09:32:49.925Z,428.00
2018-12-07T09:33:49.972Z,424.00
2018-12-07T09:34:49.909Z,392.00
2018-12-07T09:35:49.901Z,364.00
2018-12-07T09:36:49.891Z,448.00
2018-12-07T09:37:49.880Z,376.00
2018-12-07T09:38:50.071Z,368.00
2018-12-07T09:39:50.254Z,368.00
2018-12-07T09:40:49.952Z,344.00
2018-12-07T09:41:49.916Z,416.00
2018-12-07T09:42:49.820Z,380.00
2018-12-07T09:43:49.837Z,392.00
2018-12-07T09:44:49.803Z,412.00
2018-12-07T09:45:49.787Z,392.00
2018-12-07T09:46:49.774Z,436.00
2018-12-07T09:47:49.763Z,372.00
2018-12-07T09:48:49.750Z,380.00
2018-12-07T09:49:49.771Z,352.00
2018-12-07T09:50:49.751Z,384.00
2018-12-07T09:51:49.723Z,388.00
2018-12-07T09:52:49.718Z,416.00
2018-12-07T09:53:49.727Z,376.00
2018-12-07T09:54:49.688Z,456.00
2018-12-07T09:55:49.719Z,484.00
2018-12-07T09:56:49.667Z,472.00
2018-12-07T09:57:49.650Z,480.00
2018-12-07T09:58:49.644Z,532.00
2018-12-07T09:59:49.661Z,636.00
2018-12-07T10:00:49.615Z,668.00
2018-12-07T10:01:49.605Z,700.00
2018-12-07T10:02:49.602Z,648.00
2018-12-07T10:03:49.579Z,632.00
2018-12-07T10:04:49.602Z,624.00
2018-12-07T10:05:49.570Z,576.00
2018-12-07T10:06:49.555Z,520.00
2018-12-07T10:07:49.543Z,508.00
2018-12-07T10:08:49.526Z,560.00
2018-12-07T10:09:49.517Z,472.00
2018-12-07T10:10:49.538Z,476.00
2018-12-07T10:11:49.584Z,432.00
2018-12-07T10:12:49.486Z,420.00
2018-12-07T10:13:49.479Z,444.00
2018-12-07T10:14:49.465Z,452.00
2018-12-07T10:15:49.461Z,480.00
2018-12-07T10:16:49.473Z,500.00
2018-12-07T10:17:49.435Z,556.00
2018-12-07T10:18:49.430Z,564.00
2018-12-07T10:19:49.425Z,628.00
2018-12-07T10:20:49.392Z,636.00
2018-12-07T10:21:49.428Z,600.00
2018-12-07T10:22:49.407Z,584.00
2018-12-07T10:23:49.376Z,528.00
2018-12-07T10:24:49.359Z,552.00
2018-12-07T10:25:49.339Z,516.00
2018-12-07T10:26:49.377Z,816.00
2018-12-07T10:27:49.342Z,1120.00
2018-12-07T10:28:49.310Z,1032.00
2018-12-07T10:29:49.301Z,912.00
2018-12-07T10:30:49.308Z,796.00
2018-12-07T10:31:49.329Z,624.00
2018-12-07T10:32:49.261Z,560.00
2018-12-07T10:33:49.257Z,516.00
2018-12-07T10:34:49.250Z,556.00
2018-12-07T10:35:49.259Z,660.00
2018-12-07T10:36:49.349Z,624.00
2018-12-07T10:37:49.212Z,636.00
2018-12-07T10:38:49.209Z,608.00
2018-12-07T10:39:49.186Z,672.00
2018-12-07T10:40:49.240Z,696.00
2018-12-07T10:41:49.172Z,796.00
2018-12-07T10:42:49.182Z,752.00
2018-12-07T10:43:49.140Z,632.00
2018-12-07T10:44:49.134Z,616.00
2018-12-07T10:45:49.120Z,632.00
2018-12-07T10:46:49.116Z,612.00
2018-12-07T10:47:50.456Z,640.00
2018-12-07T10:48:49.086Z,604.00
2018-12-07T10:49:49.077Z,632.00
2018-12-07T10:50:49.063Z,700.00
2018-12-07T10:51:49.057Z,628.00
2018-12-07T10:52:49.045Z,580.00
2018-12-07T10:53:49.060Z,568.00
2018-12-07T10:54:49.082Z,656.00
2018-12-07T10:55:49.012Z,732.00
2018-12-07T10:56:49.003Z,920.00
2018-12-07T10:57:48.996Z,1060.00
2018-12-07T10:58:48.982Z,1316.00
2018-12-07T10:59:49.005Z,1004.00
2018-12-07T11:00:48.951Z,1020.00
2018-12-07T11:01:48.943Z,952.00
2018-12-07T11:02:48.932Z,948.00
2018-12-07T11:03:48.925Z,888.00
2018-12-07T11:04:48.951Z,920.00
2018-12-07T11:05:48.899Z,904.00
2018-12-07T11:06:48.886Z,808.00
2018-12-07T11:07:48.874Z,892.00
2018-12-07T11:08:48.870Z,980.00
2018-12-07T11:09:48.850Z,1140.00
2018-12-07T11:10:48.878Z,1340.00
2018-12-07T11:11:48.834Z,1428.00
2018-12-07T11:12:48.821Z,1368.00
2018-12-07T11:13:48.806Z,1220.00
2018-12-07T11:14:48.798Z,1096.00
2018-12-07T11:15:48.923Z,780.00
2018-12-07T11:16:48.799Z,660.00
2018-12-07T11:17:48.770Z,684.00
2018-12-07T11:18:48.778Z,724.00
2018-12-07T11:19:48.750Z,656.00
2018-12-07T11:20:48.726Z,648.00
2018-12-07T11:21:48.764Z,536.00
2018-12-07T11:22:48.710Z,500.00
2018-12-07T11:23:48.704Z,492.00
2018-12-07T11:24:48.713Z,536.00
2018-12-07T11:25:48.673Z,532.00
2018-12-07T11:26:48.664Z,500.00
2018-12-07T11:27:48.683Z,484.00
2018-12-07T11:28:48.641Z,480.00
2018-12-07T11:29:48.629Z,496.00
2018-12-07T11:30:48.619Z,500.00
2018-12-07T11:31:48.618Z,496.00
2018-12-07T11:32:48.596Z,492.00
2018-12-07T11:33:48.621Z,496.00
2018-12-07T11:34:48.609Z,512.00
2018-12-07T11:35:48.559Z,456.00
2018-12-07T11:36:48.551Z,416.00
2018-12-07T11:37:48.544Z,452.00
2018-12-07T11:38:48.527Z,464.00
2018-12-07T11:39:48.584Z,452.00
2018-12-07T11:40:48.503Z,452.00
2018-12-07T11:41:48.497Z,476.00
2018-12-07T11:42:48.483Z,456.00
2018-12-07T11:43:48.471Z,504.00
2018-12-07T11:44:48.495Z,504.00
2018-12-07T11:45:48.460Z,472.00
2018-12-07T11:46:48.465Z,512.00
2018-12-07T11:47:48.433Z,564.00
2018-12-07T11:48:48.420Z,664.00
2018-12-07T11:49:48.431Z,612.00
2018-12-07T11:50:48.430Z,700.00
2018-12-07T11:51:48.385Z,692.00
2018-12-07T11:52:48.372Z,608.00
2018-12-07T11:53:48.362Z,952.00
2018-12-07T11:54:48.407Z,696.00
2018-12-07T11:55:48.447Z,732.00
2018-12-07T11:56:48.324Z,700.00
2018-12-07T11:57:48.325Z,816.00
2018-12-07T11:58:48.311Z,688.00
2018-12-07T11:59:48.321Z,664.00
2018-12-07T12:00:48.290Z,804.00
2018-12-07T12:01:48.271Z,884.00
2018-12-07T12:02:48.265Z,968.00
2018-12-07T12:03:48.250Z,840.00
2018-12-07T12:04:48.243Z,752.00
2018-12-07T12:05:48.261Z,844.00
2018-12-07T12:06:48.221Z,832.00
2018-12-07T12:07:48.231Z,864.00
2018-12-07T12:08:48.196Z,812.00
2018-12-07T12:09:48.187Z,672.00
2018-12-07T12:10:48.212Z,700.00
2018-12-07T12:11:48.161Z,736.00
2018-12-07T12:12:48.152Z,624.00
2018-12-07T12:13:48.138Z,668.00
2018-12-07T12:14:48.127Z,576.00
2018-12-07T12:15:48.129Z,520.00
2018-12-07T12:16:48.175Z,724.00
2018-12-07T12:17:48.105Z,944.00
2018-12-07T12:18:48.084Z,1060.00
2018-12-07T12:19:48.077Z,1152.00
2018-12-07T12:20:48.064Z,1096.00
2018-12-07T12:21:48.083Z,860.00
2018-12-07T12:22:48.045Z,1000.00
2018-12-07T12:23:53.610Z,1380.00
2018-12-07T12:24:49.044Z,1548.00
2018-12-07T12:25:48.009Z,1600.00
2018-12-07T12:26:48.061Z,2120.00
2018-12-07T12:27:47.987Z,1732.00
2018-12-07T12:28:47.978Z,1752.00
2018-12-07T12:29:47.966Z,1676.00
2018-12-07T12:30:47.996Z,1672.00
2018-12-07T12:31:47.944Z,1880.00
2018-12-07T12:32:47.963Z,2392.00
2018-12-07T12:33:47.921Z,2508.00
2018-12-07T12:34:47.920Z,2436.00
2018-12-07T12:35:47.899Z,2304.00
2018-12-07T12:36:47.911Z,2372.00
2018-12-07T12:37:47.901Z,2188.00
2018-12-07T12:38:47.867Z,2140.00
2018-12-07T12:39:47.858Z,1996.00
2018-12-07T12:40:47.844Z,1656.00
2018-12-07T12:41:47.854Z,1324.00
2018-12-07T12:42:47.856Z,1156.00
2018-12-07T12:43:47.810Z,1116.00
2018-12-07T12:44:47.802Z,1324.00
2018-12-07T12:45:47.796Z,1060.00
2018-12-07T12:46:47.778Z,1156.00
2018-12-07T12:47:47.805Z,1040.00
2018-12-07T12:48:47.768Z,1088.00
2018-12-07T12:49:47.756Z,1136.00
2018-12-07T12:50:47.742Z,1044.00
2018-12-07T12:51:47.848Z,1216.00
2018-12-07T12:52:47.712Z,816.00
2018-12-07T12:53:47.749Z,784.00
2018-12-07T12:54:47.722Z,944.00
2018-12-07T12:55:47.676Z,1104.00